Time;durP1;ratioP1;P1;durP2;ratioP2;P2;SDS_P1;SDS_P2;PMS_P1;PMS_P2;Temp;Humidity;BMP_temperature;BMP_pressure;BME280_temperature;BME280_humidity;BME280_pressure;Samples;Min_cycle;Max_cycle;Signal;HPM_P1;HPM_P2
2023/07/14 00:00:23;;;;;;;15.63;8.15;;;;;;;28.59;67.00;99526.94;5057775;28;20052;-64
2023/07/14 00:02:51;;;;;;;18.42;8.07;;;;;;;28.55;66.88;99521.22;5058060;28;20036;-64
2023/07/14 00:05:17;;;;;;;16.77;8.32;;;;;;;28.57;66.52;99523.66;5057773;28;20033;-64
2023/07/14 00:07:44;;;;;;;12.13;8.23;;;;;;;28.43;66.51;99520.78;5056965;28;20044;-64
2023/07/14 00:10:19;;;;;;;15.25;9.70;;;;;;;28.31;65.75;99520.34;5057022;28;20040;-64
2023/07/14 00:12:46;;;;;;;12.10;8.57;;;;;;;28.31;65.62;99517.63;5056971;28;20049;-64
2023/07/14 00:15:13;;;;;;;12.80;8.50;;;;;;;28.19;65.57;99511.69;5057417;28;20037;-64
2023/07/14 00:17:38;;;;;;;12.55;8.02;;;;;;;28.17;65.98;99520.16;5057414;28;20212;-64
2023/07/14 00:20:28;;;;;;;16.20;8.65;;;;;;;28.06;66.45;99507.66;5056763;28;20075;-64
2023/07/14 00:22:54;;;;;;;11.75;8.50;;;;;;;27.94;66.33;99513.47;5057284;28;20047;-64
2023/07/14 00:25:25;;;;;;;13.38;8.38;;;;;;;27.90;67.60;99506.94;5057172;28;20083;-64
2023/07/14 00:27:56;;;;;;;11.52;8.15;;;;;;;27.90;67.78;99506.94;5057455;28;20028;-64
2023/07/14 00:30:26;;;;;;;14.45;7.95;;;;;;;27.88;68.19;99509.13;5057770;28;20033;-64
2023/07/14 00:32:54;;;;;;;14.23;8.77;;;;;;;27.87;68.32;99498.53;5057375;28;20032;-64
2023/07/14 00:35:25;;;;;;;13.07;8.32;;;;;;;27.88;69.44;99497.44;5057083;28;20061;-64
2023/07/14 00:37:53;;;;;;;17.83;8.80;;;;;;;27.83;68.33;99500.19;5057082;28;20044;-63
2023/07/14 00:40:23;;;;;;;13.95;8.57;;;;;;;27.75;68.18;99498.06;5056940;28;20141;-64
2023/07/14 00:42:55;;;;;;;13.07;8.85;;;;;;;27.79;66.49;99496.41;5057878;28;20052;-64
2023/07/14 00:45:22;;;;;;;11.68;8.82;;;;;;;27.83;66.29;99490.13;5060889;28;20264;-64
2023/07/14 00:47:52;;;;;;;12.68;8.18;;;;;;;27.86;65.84;99489.56;5060764;28;20384;-64
2023/07/14 00:50:54;;;;;;;13.00;8.13;;;;;;;27.87;65.48;99484.94;5061152;28;20361;-64
2023/07/14 00:53:28;;;;;;;10.52;8.32;;;;;;;27.79;65.94;99486.34;5020679;28;20049;-64
2023/07/14 00:56:19;;;;;;;12.93;9.13;;;;;;;27.74;65.86;99491.81;5059952;28;20049;-64
2023/07/14 00:58:50;;;;;;;14.68;9.43;;;;;;;27.76;66.04;99489.63;5060240;28;20039;-64
2023/07/14 01:01:22;;;;;;;12.15;9.00;;;;;;;27.72;66.63;99491.28;5060660;28;20326;-64
2023/07/14 01:03:51;;;;;;;14.93;8.98;;;;;;;27.72;66.50;99495.91;5060169;28;20045;-64
2023/07/14 01:06:21;;;;;;;13.05;8.70;;;;;;;27.66;67.60;99503.28;5060494;28;20098;-64
2023/07/14 01:09:13;;;;;;;12.05;9.15;;;;;;;27.49;70.67;99497.34;5060300;28;20060;-64
2023/07/14 01:11:49;;;;;;;15.45;9.55;;;;;;;27.36;70.02;99504.22;5055424;28;20115;-65
2023/07/14 01:14:29;;;;;;;15.93;9.30;;;;;;;27.32;69.19;99498.50;5060947;28;20064;-64
2023/07/14 01:16:55;;;;;;;15.23;9.68;;;;;;;27.23;68.33;99499.38;5059830;28;20044;-64
2023/07/14 01:19:32;;;;;;;15.38;9.65;;;;;;;27.04;68.61;99497.22;5059778;28;20116;-64
2023/07/14 01:22:50;;;;;;;14.15;9.90;;;;;;;26.89;68.92;99497.22;5059383;28;20232;-64
2023/07/14 01:25:57;;;;;;;14.98;9.25;;;;;;;26.78;69.98;99501.03;5004159;28;20045;-64
2023/07/14 01:28:22;;;;;;;16.98;10.27;;;;;;;26.87;70.35;99499.41;5059696;28;20087;-64
2023/07/14 01:30:48;;;;;;;15.70;9.68;;;;;;;26.86;70.32;99499.69;5060002;28;20037;-64
2023/07/14 01:33:16;;;;;;;14.95;10.20;;;;;;;26.58;72.31;99490.22;5059962;28;20040;-64
2023/07/14 01:35:55;;;;;;;16.42;10.20;;;;;;;26.22;74.86;99498.31;5060857;28;20044;-64
2023/07/14 01:38:22;;;;;;;18.48;10.05;;;;;;;26.18;75.13;99502.66;5059642;28;20068;-64
2023/07/14 01:40:48;;;;;;;18.00;10.25;;;;;;;26.16;75.00;99502.13;5059731;28;20041;-64
2023/07/14 01:43:14;;;;;;;16.85;10.73;;;;;;;26.12;73.71;99501.03;5059781;28;20090;-64
2023/07/14 01:45:52;;;;;;;19.38;10.75;;;;;;;26.24;72.65;99481.78;5059934;28;20048;-64
2023/07/14 01:48:24;;;;;;;15.10;10.30;;;;;;;26.52;73.60;99510.31;5059730;28;20033;-63
2023/07/14 01:50:57;;;;;;;14.38;9.63;;;;;;;26.61;73.32;99508.66;5059592;28;20037;-64
2023/07/14 01:53:31;;;;;;;12.98;10.10;;;;;;;26.72;72.48;99516.53;5059438;28;20044;-64
2023/07/14 01:56:00;;;;;;;15.63;9.75;;;;;;;26.76;72.15;99524.13;5059067;28;20226;-64
2023/07/14 01:58:31;;;;;;;13.70;9.18;;;;;;;26.82;71.97;99523.84;5059504;28;20379;-64
2023/07/14 02:00:57;;;;;;;17.52;11.43;;;;;;;26.84;71.25;99518.97;5059959;28;20041;-64
2023/07/14 02:03:41;;;;;;;18.33;10.20;;;;;;;26.80;71.42;99511.63;5058986;28;20045;-64
2023/07/14 02:06:07;;;;;;;15.38;9.63;;;;;;;26.87;71.23;99526.56;5059182;28;20301;-64
2023/07/14 02:08:33;;;;;;;40.65;12.40;;;;;;;26.90;70.11;99517.88;5058569;28;20071;-64
2023/07/14 02:10:59;;;;;;;21.42;10.23;;;;;;;26.88;70.08;99511.91;5058475;28;20044;-63
2023/07/14 02:13:25;;;;;;;21.55;10.63;;;;;;;27.00;70.71;99523.31;5058214;28;20182;-64
2023/07/14 02:15:52;;;;;;;15.95;8.98;;;;;;;27.04;70.58;99515.41;5058303;28;20043;-64
2023/07/14 02:18:23;;;;;;;13.63;9.95;;;;;;;27.07;70.56;99511.38;5058235;28;20036;-65
2023/07/14 02:20:50;;;;;;;12.80;9.20;;;;;;;27.02;70.43;99512.97;5059117;28;20055;-64
2023/07/14 02:23:20;;;;;;;13.32;9.90;;;;;;;26.90;70.93;99509.72;5059030;28;20045;-64
2023/07/14 02:26:08;;;;;;;14.02;9.15;;;;;;;26.91;69.62;99515.97;5058635;28;20033;-65
2023/07/14 02:28:33;;;;;;;14.93;8.73;;;;;;;26.87;70.35;99514.88;5041093;28;20057;-65
2023/07/14 02:31:25;;;;;;;18.50;10.43;;;;;;;26.90;71.59;99515.16;5058514;28;20039;-64
2023/07/14 02:33:51;;;;;;;18.58;9.68;;;;;;;26.92;71.55;99495.84;5059220;28;20041;-64
2023/07/14 02:36:40;;;;;;;17.05;10.52;;;;;;;26.92;71.44;99498.56;5059056;28;20051;-65
2023/07/14 02:39:06;;;;;;;20.88;10.07;;;;;;;26.97;71.53;99507.56;5058783;28;20372;-64
2023/07/14 02:41:36;;;;;;;20.98;11.65;;;;;;;27.02;71.28;99512.16;5059185;28;20079;-64
2023/07/14 02:44:05;;;;;;;17.45;10.68;;;;;;;26.87;71.14;99523.84;5058433;28;20200;-65
2023/07/14 02:46:39;;;;;;;18.27;11.65;;;;;;;26.82;70.82;99525.75;5058943;28;20060;-65
2023/07/14 02:49:06;;;;;;;16.70;11.77;;;;;;;26.83;70.71;99525.50;5058744;28;20045;-63
2023/07/14 02:51:32;;;;;;;20.45;12.57;;;;;;;26.68;70.69;99531.75;5058052;28;20068;-64
2023/07/14 02:53:57;;;;;;;18.42;13.30;;;;;;;26.74;70.68;99535.28;5058403;28;20348;-64
2023/07/14 02:56:22;;;;;;;22.48;12.77;;;;;;;26.86;69.58;99535.00;5058746;28;20029;-65
2023/07/14 02:58:49;;;;;;;28.10;13.90;;;;;;;26.89;69.11;99543.41;5058523;28;20082;-64
2023/07/14 03:01:17;;;;;;;23.98;14.30;;;;;;;26.82;70.12;99547.50;5058406;28;20246;-64
2023/07/14 03:03:44;;;;;;;23.48;13.75;;;;;;;26.82;70.25;99540.16;5058036;28;20222;-64
2023/07/14 03:06:12;;;;;;;21.75;13.82;;;;;;;26.76;70.46;99537.72;5058080;28;20111;-63
2023/07/14 03:08:38;;;;;;;18.48;12.52;;;;;;;26.73;71.61;99544.50;5058183;28;20041;-64
2023/07/14 03:11:03;;;;;;;20.02;11.88;;;;;;;26.77;71.80;99542.88;5058146;28;20097;-64
2023/07/14 03:13:28;;;;;;;23.75;13.90;;;;;;;26.85;71.76;99544.22;5058373;28;20041;-63
2023/07/14 03:15:54;;;;;;;20.70;12.85;;;;;;;26.92;71.98;99553.72;5058463;28;20051;-63
2023/07/14 03:18:19;;;;;;;18.45;13.07;;;;;;;26.92;71.98;99558.34;5058138;28;20629;-64
2023/07/14 03:20:45;;;;;;;14.98;11.80;;;;;;;26.92;71.54;99561.06;5058106;28;20074;-64
2023/07/14 03:23:11;;;;;;;18.17;12.10;;;;;;;26.60;73.23;99567.59;5057870;28;20083;-64
2023/07/14 03:25:37;;;;;;;20.38;14.32;;;;;;;26.58;73.88;99579.81;5058060;28;20048;-63
2023/07/14 03:28:03;;;;;;;28.30;18.13;;;;;;;26.63;72.66;99593.41;5058075;28;20122;-64
2023/07/14 03:30:29;;;;;;;30.42;18.00;;;;;;;26.60;72.31;99591.22;5057994;28;20106;-64
2023/07/14 03:32:55;;;;;;;30.92;18.52;;;;;;;26.64;71.54;99604.00;5058092;28;20029;-65
2023/07/14 03:35:20;;;;;;;41.20;19.35;;;;;;;26.53;71.72;99605.06;5057497;28;20083;-64
2023/07/14 03:37:46;;;;;;;29.23;19.20;;;;;;;26.63;71.27;99617.84;5057902;28;20043;-65
2023/07/14 03:40:12;;;;;;;29.50;17.10;;;;;;;26.64;71.52;99620.28;5057640;28;20037;-64
2023/07/14 03:42:39;;;;;;;27.33;17.15;;;;;;;26.59;71.56;99620.28;5057546;28;20284;-64
2023/07/14 03:45:06;;;;;;;29.17;16.92;;;;;;;26.49;71.26;99627.59;5057405;28;20060;-64
2023/07/14 03:47:32;;;;;;;34.47;18.95;;;;;;;26.33;71.32;99637.63;5057293;28;20259;-63
2023/07/14 03:49:57;;;;;;;33.15;19.52;;;;;;;26.40;70.75;99654.47;5058277;28;20432;-65
2023/07/14 03:52:23;;;;;;;37.97;20.67;;;;;;;26.32;71.54;99658.50;5057562;28;20467;-63
2023/07/14 03:54:49;;;;;;;40.38;22.20;;;;;;;26.44;71.15;99660.16;5057523;28;20330;-63
2023/07/14 03:57:14;;;;;;;33.60;20.73;;;;;;;26.53;70.94;99664.00;5057942;28;20054;-63
2023/07/14 03:59:39;;;;;;;34.10;19.83;;;;;;;26.44;71.74;99671.03;5039766;28;20055;-63
2023/07/14 04:02:05;;;;;;;26.67;15.48;;;;;;;26.38;72.00;99667.50;5057671;28;20048;-63
2023/07/14 04:04:31;;;;;;;20.35;13.63;;;;;;;26.30;71.35;99663.38;5058211;28;20231;-63
2023/07/14 04:06:57;;;;;;;20.50;12.32;;;;;;;26.38;71.33;99667.50;5057520;28;20041;-63
2023/07/14 04:09:23;;;;;;;19.02;11.32;;;;;;;26.48;70.81;99659.38;5057942;28;20029;-63
2023/07/14 04:11:48;;;;;;;17.55;10.98;;;;;;;26.55;70.35;99662.63;5057752;28;20079;-63
2023/07/14 04:14:15;;;;;;;13.63;9.70;;;;;;;26.60;70.82;99668.09;5057736;28;20044;-64
2023/07/14 04:16:41;;;;;;;14.65;9.40;;;;;;;26.66;71.17;99680.59;5057747;28;20037;-63
2023/07/14 04:19:06;;;;;;;16.23;10.30;;;;;;;26.67;71.65;99670.53;5060789;28;20532;-63
2023/07/14 04:21:32;;;;;;;25.80;10.30;;;;;;;26.77;72.12;99675.16;5061452;28;20036;-63
2023/07/14 04:23:57;;;;;;;17.23;9.90;;;;;;;26.80;72.47;99672.72;5061267;28;20078;-63
2023/07/14 04:26:25;;;;;;;17.67;9.63;;;;;;;26.87;72.45;99676.00;5061569;28;20285;-63
2023/07/14 04:28:50;;;;;;;14.27;9.52;;;;;;;26.93;72.29;99674.09;5061005;28;20041;-62
2023/07/14 04:31:17;;;;;;;12.73;9.02;;;;;;;27.05;71.40;99671.97;5060810;28;20362;-64
2023/07/14 04:33:46;;;;;;;16.33;8.60;;;;;;;27.05;70.54;99674.69;5061422;28;20192;-63
2023/07/14 04:36:13;;;;;;;15.68;10.00;;;;;;;27.11;70.76;99676.31;5060749;28;20048;-63
2023/07/14 04:38:45;;;;;;;12.40;8.50;;;;;;;27.21;69.64;99670.06;5061088;28;20045;-63
2023/07/14 04:41:14;;;;;;;14.35;8.75;;;;;;;27.31;69.36;99662.72;5061084;28;20049;-63
2023/07/14 04:43:40;;;;;;;11.75;8.27;;;;;;;27.43;68.93;99661.63;5060964;28;20044;-63
2023/07/14 04:46:06;;;;;;;18.33;8.70;;;;;;;27.63;69.00;99667.03;5060973;28;20112;-64
2023/07/14 04:48:31;;;;;;;16.98;9.45;;;;;;;27.71;67.54;99676.53;5060435;28;20033;-63
2023/07/14 04:50:57;;;;;;;15.35;8.65;;;;;;;27.80;67.76;99681.13;5061121;28;20044;-64
2023/07/14 04:53:22;;;;;;;11.68;8.02;;;;;;;27.96;66.42;99671.03;5060658;28;20040;-63
2023/07/14 04:55:48;;;;;;;12.18;8.30;;;;;;;28.13;66.10;99670.72;5060884;28;20040;-63
2023/07/14 04:58:16;;;;;;;15.60;8.68;;;;;;;28.29;65.48;99661.41;5060583;28;20033;-63
2023/07/14 05:00:42;;;;;;;13.00;10.02;;;;;;;28.50;64.90;99662.91;5060760;28;20056;-64
2023/07/14 05:03:09;;;;;;;11.55;10.20;;;;;;;28.65;63.41;99663.91;5060477;28;20410;-63
2023/07/14 05:05:35;;;;;;;40.63;28.13;;;;;;;28.67;63.25;99675.34;5060398;28;20104;-63
2023/07/14 05:08:01;;;;;;;49.00;28.50;;;;;;;28.77;63.63;99681.53;5060382;28;20037;-64
2023/07/14 05:10:27;;;;;;;32.85;20.77;;;;;;;28.97;62.38;99666.97;5060230;28;20066;-64
2023/07/14 05:12:55;;;;;;;15.23;9.65;;;;;;;29.03;60.87;99668.56;5060033;28;20330;-64
2023/07/14 05:15:21;;;;;;;17.60;12.32;;;;;;;29.22;59.51;99666.78;5060230;28;20377;-64
2023/07/14 05:17:48;;;;;;;14.80;9.65;;;;;;;29.42;59.25;99670.41;5060502;28;20365;-64
2023/07/14 05:20:15;;;;;;;17.33;10.10;;;;;;;29.65;57.95;99666.94;5060353;28;20052;-64
2023/07/14 05:22:47;;;;;;;13.50;8.68;;;;;;;29.91;58.16;99681.09;5060180;28;20358;-64
2023/07/14 05:25:14;;;;;;;17.58;8.50;;;;;;;30.11;56.96;99690.97;5059429;28;20372;-64
2023/07/14 05:27:43;;;;;;;14.45;9.52;;;;;;;30.20;56.95;99694.72;5059761;28;20342;-64
2023/07/14 05:30:10;;;;;;;13.80;9.32;;;;;;;30.34;56.27;99703.00;5058840;28;20376;-64
2023/07/14 05:32:36;;;;;;;14.80;10.13;;;;;;;30.34;54.79;99694.81;5060169;28;20028;-64
2023/07/14 05:35:02;;;;;;;20.88;12.40;;;;;;;30.33;54.63;99698.66;5059659;28;20033;-64
2023/07/14 05:37:29;;;;;;;18.17;13.43;;;;;;;30.34;54.69;99701.09;5060288;28;20029;-62
2023/07/14 05:39:54;;;;;;;30.52;20.80;;;;;;;30.50;53.94;99690.78;5060041;28;20074;-62
2023/07/14 05:42:20;;;;;;;18.60;14.88;;;;;;;30.64;53.90;99685.41;5059886;28;20040;-63
2023/07/14 05:44:45;;;;;;;24.13;18.65;;;;;;;30.71;54.12;99694.03;5060100;28;20041;-63
2023/07/14 05:47:11;;;;;;;18.50;11.48;;;;;;;30.69;52.76;99696.25;5059665;28;20091;-63
2023/07/14 05:49:36;;;;;;;13.02;8.82;;;;;;;30.79;53.12;99688.72;5060177;28;20051;-63
2023/07/14 05:52:02;;;;;;;14.35;8.98;;;;;;;30.98;53.93;99685.97;5059727;28;20041;-63
2023/07/14 05:54:28;;;;;;;15.13;9.38;;;;;;;31.23;52.82;99686.72;5059907;28;20054;-63
2023/07/14 05:56:55;;;;;;;16.27;9.23;;;;;;;31.39;52.07;99696.28;5059861;28;20223;-63
2023/07/14 05:59:21;;;;;;;15.00;9.35;;;;;;;31.53;51.15;99693.56;5059264;28;20065;-63
2023/07/14 06:01:47;;;;;;;13.90;9.30;;;;;;;31.69;48.82;99694.91;5059663;28;20057;-63
2023/07/14 06:04:12;;;;;;;15.07;9.25;;;;;;;31.88;48.50;99692.09;5059869;28;20383;-63
2023/07/14 06:06:38;;;;;;;21.35;10.00;;;;;;;32.07;48.41;99688.16;5059642;28;20060;-63
2023/07/14 06:09:05;;;;;;;15.43;9.57;;;;;;;32.04;47.18;99696.16;5059293;28;20214;-63
2023/07/14 06:11:31;;;;;;;13.65;9.30;;;;;;;32.12;47.04;99692.72;5059849;28;20040;-63
2023/07/14 06:13:56;;;;;;;17.85;9.65;;;;;;;32.16;45.84;99692.91;5059290;28;20389;-63
2023/07/14 06:16:22;;;;;;;15.88;9.68;;;;;;;32.32;46.87;99691.53;5058556;28;20037;-64
2023/07/14 06:18:48;;;;;;;14.35;9.98;;;;;;;32.57;46.01;99695.63;5037284;28;20077;-62
2023/07/14 06:21:14;;;;;;;17.13;8.90;;;;;;;32.76;44.92;99695.47;5038719;28;20041;-63
2023/07/14 06:23:40;;;;;;;12.75;8.73;;;;;;;32.87;45.70;99686.72;5038587;28;20082;-63
2023/07/14 06:26:05;;;;;;;11.77;8.13;;;;;;;32.92;44.28;99691.28;5038734;28;20326;-63
2023/07/14 06:28:31;;;;;;;10.18;7.47;;;;;;;32.90;42.52;99688.03;5038860;28;20239;-63
2023/07/14 06:31:02;;;;;;;13.60;7.57;;;;;;;33.14;42.57;99693.19;5039088;28;20040;-63
2023/07/14 06:33:28;;;;;;;12.75;7.53;;;;;;;33.30;41.25;99689.81;5039231;28;20041;-63
2023/07/14 06:35:55;;;;;;;12.60;7.57;;;;;;;33.47;41.94;99691.84;5039103;28;20044;-62
2023/07/14 06:38:22;;;;;;;10.07;7.07;;;;;;;33.54;40.41;99697.69;5039138;28;20053;-62
2023/07/14 06:41:03;;;;;;;12.55;8.10;;;;;;;33.59;40.72;99697.56;5038584;28;20038;-63
2023/07/14 06:43:31;;;;;;;13.25;7.57;;;;;;;33.63;40.20;99695.81;5038672;28;20088;-63
2023/07/14 06:45:56;;;;;;;10.60;7.60;;;;;;;33.74;39.13;99685.34;5037939;28;20080;-63
2023/07/14 06:48:23;;;;;;;12.30;7.97;;;;;;;33.97;40.62;99690.78;5038830;28;20064;-63
2023/07/14 06:50:49;;;;;;;13.50;7.07;;;;;;;33.92;39.31;99697.25;5039139;28;20052;-63
2023/07/14 06:53:15;;;;;;;13.82;7.72;;;;;;;34.07;39.49;99701.50;5038739;28;20038;-63
2023/07/14 06:55:40;;;;;;;10.88;7.65;;;;;;;34.25;37.65;99692.16;5038765;28;20201;-63
2023/07/14 06:58:07;;;;;;;22.50;7.47;;;;;;;34.36;39.03;99701.78;5038053;28;20037;-63
2023/07/14 07:00:33;;;;;;;11.93;7.68;;;;;;;34.34;37.67;99697.72;5038911;28;20045;-62
2023/07/14 07:02:59;;;;;;;11.57;7.32;;;;;;;34.40;37.49;99704.69;5038266;28;20440;-63
2023/07/14 07:05:25;;;;;;;12.95;7.40;;;;;;;34.41;37.02;99698.88;5038424;28;20327;-63
2023/07/14 07:07:51;;;;;;;9.55;7.38;;;;;;;34.68;37.15;99696.94;5038376;28;20047;-63
2023/07/14 07:10:17;;;;;;;10.85;7.40;;;;;;;34.89;37.63;99700.69;5038748;28;20219;-63
2023/07/14 07:12:42;;;;;;;10.57;7.53;;;;;;;34.97;35.81;99707.34;5038082;28;20033;-63
2023/07/14 07:15:08;;;;;;;12.85;7.45;;;;;;;34.88;35.14;99708.16;5038306;28;20049;-63
2023/07/14 07:17:34;;;;;;;8.90;6.78;;;;;;;34.99;35.87;99713.31;5038639;28;20029;-63
2023/07/14 07:20:00;;;;;;;11.75;7.45;;;;;;;34.98;35.94;99709.75;5052539;28;20287;-63
2023/07/14 07:22:26;;;;;;;13.35;7.70;;;;;;;35.13;36.27;99713.94;5058474;28;20048;-63
2023/07/14 07:24:51;;;;;;;11.38;7.60;;;;;;;35.10;36.61;99709.91;5058379;28;20094;-63
2023/07/14 07:27:17;;;;;;;9.48;7.20;;;;;;;35.13;35.80;99713.94;5058324;28;20346;-63
2023/07/14 07:29:42;;;;;;;9.45;7.38;;;;;;;35.22;36.12;99712.81;5058096;28;20036;-63
2023/07/14 07:32:08;;;;;;;10.05;7.20;;;;;;;35.43;35.06;99707.47;5057767;28;20037;-63
2023/07/14 07:34:34;;;;;;;11.45;7.53;;;;;;;35.43;35.53;99714.94;5058112;28;20219;-63
2023/07/14 07:37:00;;;;;;;11.18;7.80;;;;;;;35.62;35.94;99720.03;5058034;28;20031;-63
2023/07/14 07:39:25;;;;;;;10.65;7.15;;;;;;;35.77;35.99;99709.28;5058107;28;20033;-63
2023/07/14 07:41:51;;;;;;;13.57;7.22;;;;;;;35.89;35.21;99705.06;5057901;28;20303;-63
2023/07/14 07:44:16;;;;;;;11.18;7.78;;;;;;;35.97;34.43;99707.78;5057643;28;20045;-63
2023/07/14 07:46:42;;;;;;;13.52;7.75;;;;;;;35.87;34.13;99699.88;5058180;28;20039;-63
2023/07/14 07:49:07;;;;;;;11.23;8.32;;;;;;;35.99;33.87;99694.47;5058150;28;20036;-63
2023/07/14 07:51:33;;;;;;;9.52;8.15;;;;;;;36.01;33.16;99696.91;5058342;28;20037;-63
2023/07/14 07:53:59;;;;;;;11.00;7.72;;;;;;;36.05;32.86;99693.16;5062158;28;20044;-63
2023/07/14 07:56:25;;;;;;;10.32;7.18;;;;;;;36.30;32.36;99685.06;5061638;28;20044;-64
2023/07/14 07:58:50;;;;;;;13.18;7.93;;;;;;;36.52;31.82;99678.47;5061601;28;20040;-63
2023/07/14 08:01:21;;;;;;;13.73;7.68;;;;;;;36.38;31.44;99674.00;5061369;28;20033;-63
2023/07/14 08:03:47;;;;;;;11.52;7.80;;;;;;;36.41;31.97;99673.34;5061803;28;20072;-63
2023/07/14 08:06:13;;;;;;;10.93;7.43;;;;;;;36.71;32.45;99667.75;5043965;28;20110;-63
2023/07/14 08:08:39;;;;;;;9.40;7.55;;;;;;;36.84;31.10;99666.69;5061854;28;20047;-63
2023/07/14 08:11:08;;;;;;;10.10;7.75;;;;;;;37.06;32.01;99674.59;5062347;28;20033;-63
2023/07/14 08:13:34;;;;;;;12.65;7.93;;;;;;;37.22;32.21;99668.44;5061832;28;20087;-63
2023/07/14 08:15:59;;;;;;;13.43;7.93;;;;;;;37.36;31.96;99667.00;5061168;28;20267;-63
2023/07/14 08:18:26;;;;;;;11.55;7.55;;;;;;;37.39;31.23;99674.59;5061553;28;20040;-63
2023/07/14 08:20:52;;;;;;;13.10;8.10;;;;;;;37.44;31.17;99667.22;5061287;28;20045;-63
2023/07/14 08:23:20;;;;;;;11.95;7.25;;;;;;;37.54;32.16;99667.63;5061496;28;20033;-63
2023/07/14 08:25:59;;;;;;;15.60;7.43;;;;;;;37.58;32.07;99664.97;5061603;28;20029;-63
2023/07/14 08:28:26;;;;;;;11.07;8.68;;;;;;;37.62;31.79;99669.47;5060938;28;20033;-63
2023/07/14 08:30:55;;;;;;;13.20;8.63;;;;;;;37.61;32.01;99664.28;5061542;28;20040;-63
2023/07/14 08:33:22;;;;;;;11.15;7.80;;;;;;;37.60;32.09;99666.25;5060960;28;20067;-63
2023/07/14 08:35:52;;;;;;;13.40;8.50;;;;;;;37.66;31.71;99662.09;5061361;28;20057;-63
2023/07/14 08:38:18;;;;;;;16.08;8.38;;;;;;;37.75;31.02;99662.03;5061169;28;20041;-63
2023/07/14 08:41:01;;;;;;;14.05;8.18;;;;;;;37.72;31.51;99661.91;5061062;28;20048;-63
2023/07/14 08:43:55;;;;;;;12.38;8.55;;;;;;;37.65;31.78;99670.75;5061010;28;20032;-63
2023/07/14 08:46:21;;;;;;;14.88;8.13;;;;;;;37.61;31.44;99667.06;4989703;28;20054;-63
2023/07/14 08:49:03;;;;;;;11.95;7.65;;;;;;;37.54;31.27;99670.38;5060867;28;20072;-63
2023/07/14 08:51:44;;;;;;;11.38;8.35;;;;;;;37.45;30.64;99664.13;5060627;28;20071;-63
2023/07/14 08:54:20;;;;;;;12.30;8.02;;;;;;;37.55;32.27;99660.94;5060625;28;20064;-63
2023/07/14 08:56:46;;;;;;;15.68;8.65;;;;;;;37.51;30.93;99660.03;5060549;28;20358;-63
2023/07/14 08:59:35;;;;;;;12.43;8.38;;;;;;;37.54;30.76;99659.34;5060437;28;20041;-63
2023/07/14 09:02:15;;;;;;;11.48;7.88;;;;;;;37.58;31.78;99651.16;5060453;28;20342;-63
2023/07/14 09:04:44;;;;;;;9.60;7.40;;;;;;;37.65;31.73;99656.94;5060073;28;20029;-63
2023/07/14 09:07:16;;;;;;;11.75;8.65;;;;;;;37.73;31.48;99646.94;5059852;28;20036;-63
2023/07/14 09:09:42;;;;;;;12.10;8.30;;;;;;;37.66;29.83;99651.06;5060108;28;20342;-63
2023/07/14 09:12:17;;;;;;;12.13;7.93;;;;;;;37.69;30.99;99650.41;5059916;28;20049;-63
2023/07/14 09:15:00;;;;;;;13.18;8.07;;;;;;;37.61;30.60;99644.94;5060858;28;20056;-63
2023/07/14 09:18:10;;;;;;;12.50;8.55;;;;;;;37.52;30.84;99647.03;5060695;28;20076;-64
2023/07/14 09:21:00;;;;;;;14.00;8.45;;;;;;;37.49;31.23;99647.72;4979084;28;20307;-64
2023/07/14 09:23:29;;;;;;;11.23;8.27;;;;;;;37.46;29.99;99645.63;4979230;28;20078;-63
2023/07/14 09:26:15;;;;;;;12.27;7.95;;;;;;;37.48;29.32;99635.03;5031433;28;20052;-63
2023/07/14 09:28:48;;;;;;;10.73;7.82;;;;;;;37.33;30.03;99640.06;5060496;28;20102;-62
2023/07/14 09:31:31;;;;;;;12.38;7.65;;;;;;;37.19;30.33;99638.75;5060559;28;20063;-63
2023/07/14 09:34:02;;;;;;;10.27;7.60;;;;;;;37.21;30.16;99633.69;5059757;28;20052;-63
2023/07/14 09:36:28;;;;;;;10.88;8.30;;;;;;;37.19;29.75;99636.78;5060104;28;20045;-63
2023/07/14 09:39:04;;;;;;;12.15;7.45;;;;;;;37.03;29.89;99630.31;5059896;28;20223;-63
2023/07/14 09:41:31;;;;;;;11.73;7.68;;;;;;;37.12;29.00;99628.25;5059474;28;20100;-64
2023/07/14 09:43:59;;;;;;;10.43;7.45;;;;;;;37.08;30.25;99627.31;5059772;28;20041;-64
2023/07/14 09:46:47;;;;;;;12.90;8.55;;;;;;;37.04;30.00;99632.72;5059761;28;20253;-63
2023/07/14 09:49:24;;;;;;;11.23;7.60;;;;;;;37.11;29.12;99628.59;5059409;28;20379;-63
2023/07/14 09:52:07;;;;;;;11.80;8.07;;;;;;;37.12;29.65;99619.16;5060022;28;20033;-63
2023/07/14 09:54:34;;;;;;;13.82;8.35;;;;;;;37.04;29.67;99616.16;5060074;28;20040;-63
2023/07/14 09:57:02;;;;;;;12.50;7.85;;;;;;;36.99;29.36;99624.66;5059552;28;20041;-63
2023/07/14 09:59:28;;;;;;;11.32;7.88;;;;;;;37.01;29.43;99614.09;5060322;28;20048;-63
2023/07/14 10:01:58;;;;;;;11.88;7.57;;;;;;;36.95;28.40;99614.66;5059815;28;20104;-63
2023/07/14 10:04:35;;;;;;;12.88;7.70;;;;;;;36.99;28.25;99615.56;5041812;28;20068;-64
2023/07/14 10:07:27;;;;;;;9.25;7.10;;;;;;;37.08;28.47;99603.28;5059379;28;20037;-63
2023/07/14 10:10:19;;;;;;;8.32;7.45;;;;;;;37.01;28.13;99597.53;5058755;28;20037;-63
2023/07/14 10:12:47;;;;;;;9.48;6.90;;;;;;;36.88;26.82;99597.84;5058230;28;20115;-63
2023/07/14 10:15:30;;;;;;;11.52;7.65;;;;;;;36.81;27.52;99595.63;5059043;28;20049;-62
2023/07/14 10:18:02;;;;;;;9.23;7.20;;;;;;;36.89;28.84;99596.69;5059573;28;20045;-63
2023/07/14 10:20:28;;;;;;;10.68;7.40;;;;;;;36.90;28.19;99599.09;5059211;28;20080;-63
2023/07/14 10:22:57;;;;;;;13.30;8.18;;;;;;;36.89;29.71;99586.47;5059413;28;20439;-63
2023/07/14 10:25:23;;;;;;;12.13;7.45;;;;;;;36.96;28.24;99589.47;5058989;28;20249;-63
2023/07/14 10:28:11;;;;;;;10.13;6.80;;;;;;;37.02;27.41;99588.09;5059429;28;20041;-64
2023/07/14 10:30:53;;;;;;;9.50;7.10;;;;;;;36.83;26.93;99581.50;5058984;28;20087;-64
2023/07/14 10:33:33;;;;;;;11.82;8.13;;;;;;;36.85;27.40;99584.72;5059026;28;20051;-64
2023/07/14 10:36:12;;;;;;;9.68;7.63;;;;;;;36.75;27.23;99581.22;5058597;28;20033;-64
2023/07/14 10:38:53;;;;;;;12.00;7.57;;;;;;;36.67;29.22;99571.06;5059214;28;20226;-64
2023/07/14 10:41:20;;;;;;;12.20;7.13;;;;;;;36.75;28.76;99570.19;5059027;28;20049;-65
2023/07/14 10:44:01;;;;;;;9.43;7.30;;;;;;;36.78;28.63;99576.19;5058185;28;20091;-64
2023/07/14 10:46:36;;;;;;;10.63;7.00;;;;;;;36.72;28.89;99575.56;5058726;28;20059;-64
2023/07/14 10:49:28;;;;;;;9.07;6.70;;;;;;;36.80;29.46;99565.63;5058618;28;20044;-65
2023/07/14 10:52:03;;;;;;;10.73;7.37;;;;;;;36.85;29.89;99566.22;5058755;28;20044;-64
2023/07/14 10:54:51;;;;;;;10.48;7.53;;;;;;;36.86;29.74;99561.50;5059141;28;20035;-65
2023/07/14 10:57:29;;;;;;;10.73;7.50;;;;;;;36.82;30.07;99552.28;5058859;28;20037;-65
2023/07/14 11:00:00;;;;;;;11.45;8.35;;;;;;;36.79;30.30;99561.25;5058576;28;20032;-65
2023/07/14 11:02:37;;;;;;;10.95;7.93;;;;;;;36.70;29.72;99555.78;5057964;28;20392;-65
2023/07/14 11:05:13;;;;;;;12.88;7.85;;;;;;;36.65;28.05;99553.25;5059106;28;20051;-64
2023/07/14 11:07:38;;;;;;;9.45;7.78;;;;;;;36.58;29.44;99542.78;5058849;28;20358;-65
2023/07/14 11:10:16;;;;;;;13.15;8.13;;;;;;;36.44;29.04;99545.81;5058457;28;20100;-64
2023/07/14 11:12:59;;;;;;;11.43;8.27;;;;;;;36.44;30.66;99540.31;5058621;28;20062;-65
2023/07/14 11:15:41;;;;;;;12.35;7.80;;;;;;;36.47;30.62;99540.78;5058317;28;20116;-64
2023/07/14 11:18:32;;;;;;;12.90;7.30;;;;;;;36.56;29.81;99544.25;5058083;28;20032;-64
2023/07/14 11:21:12;;;;;;;13.15;7.85;;;;;;;36.62;29.36;99532.66;5018485;28;20325;-64
2023/07/14 11:24:07;;;;;;;14.75;8.18;;;;;;;36.57;28.08;99538.41;5018494;28;20042;-64
2023/07/14 11:26:54;;;;;;;12.55;8.05;;;;;;;36.55;28.58;99535.19;5004928;28;20415;-65
2023/07/14 11:29:22;;;;;;;12.55;8.55;;;;;;;36.51;28.63;99528.72;5018541;28;20042;-65
2023/07/14 11:31:59;;;;;;;12.30;7.50;;;;;;;36.49;28.24;99530.22;5018729;28;20041;-64
2023/07/14 11:34:37;;;;;;;11.63;7.28;;;;;;;36.48;30.06;99525.84;5018416;28;20223;-65
2023/07/14 11:37:23;;;;;;;9.50;7.07;;;;;;;36.47;29.46;99527.81;5018189;28;20041;-64
2023/07/14 11:39:57;;;;;;;10.88;7.28;;;;;;;36.46;28.16;99526.19;5017695;28;20260;-65